createdAt,value
2022-09-20T00:01:10.163Z,9.50
2022-09-20T00:03:39.099Z,9.50
2022-09-20T00:06:08.352Z,9.50
2022-09-20T00:08:36.030Z,9.50
2022-09-20T00:11:06.602Z,9.50
2022-09-20T00:13:34.334Z,9.50
2022-09-20T00:16:11.753Z,9.50
2022-09-20T00:18:39.120Z,9.40
2022-09-20T00:21:06.610Z,9.40
2022-09-20T00:23:33.795Z,9.30
2022-09-20T00:26:02.450Z,9.30
2022-09-20T00:28:29.979Z,9.30
2022-09-20T00:30:57.140Z,9.20
2022-09-20T00:33:45.564Z,9.20
2022-09-20T00:36:12.777Z,9.10
2022-09-20T00:38:39.607Z,9.00
2022-09-20T00:41:06.889Z,8.90
2022-09-20T00:43:42.851Z,8.90
2022-09-20T00:46:19.912Z,8.80
2022-09-20T00:48:47.654Z,8.80
2022-09-20T00:51:19.617Z,8.70
2022-09-20T00:53:50.906Z,8.70
2022-09-20T00:56:25.665Z,8.60
2022-09-20T00:59:11.563Z,8.60
2022-09-20T01:01:38.494Z,8.60
2022-09-20T01:04:05.582Z,8.60
2022-09-20T01:06:34.118Z,8.50
2022-09-20T01:09:05.530Z,8.50
2022-09-20T01:11:34.064Z,8.40
2022-09-20T01:14:01.004Z,8.40
2022-09-20T01:16:30.288Z,8.40
2022-09-20T01:19:00.540Z,8.30
2022-09-20T01:21:28.384Z,8.30
2022-09-20T01:24:20.223Z,8.20
2022-09-20T01:26:59.314Z,8.20
2022-09-20T01:29:43.563Z,8.10
2022-09-20T01:32:19.626Z,8.10
2022-09-20T01:34:50.559Z,8.00
2022-09-20T01:37:24.786Z,8.00
2022-09-20T01:40:00.257Z,8.00
2022-09-20T01:42:33.864Z,8.00
2022-09-20T01:45:09.806Z,7.90
2022-09-20T01:48:14.511Z,7.90
2022-09-20T01:51:04.090Z,7.90
2022-09-20T01:54:00.292Z,7.80
2022-09-20T01:56:45.189Z,7.80
2022-09-20T01:59:30.975Z,7.80
2022-09-20T02:02:01.199Z,7.80
2022-09-20T02:04:55.385Z,7.80
2022-09-20T02:07:31.008Z,7.80
2022-09-20T02:10:32.466Z,7.80
2022-09-20T02:13:03.899Z,7.80
2022-09-20T02:15:46.851Z,7.80
2022-09-20T02:18:40.761Z,7.80
2022-09-20T02:21:35.048Z,7.80
2022-09-20T02:24:13.688Z,7.80
2022-09-20T02:27:01.963Z,7.80
2022-09-20T02:29:43.832Z,7.80
2022-09-20T02:32:19.509Z,7.80
2022-09-20T02:34:52.568Z,7.80
2022-09-20T02:37:45.628Z,7.80
2022-09-20T02:40:40.885Z,7.80
2022-09-20T02:43:31.203Z,7.80
2022-09-20T02:46:19.267Z,7.80
2022-09-20T02:49:10.363Z,7.80
2022-09-20T02:51:56.783Z,7.80
2022-09-20T02:54:46.997Z,7.80
2022-09-20T02:57:25.191Z,7.80
2022-09-20T03:00:09.691Z,7.80
2022-09-20T03:02:46.038Z,7.70
2022-09-20T03:05:32.003Z,7.80
2022-09-20T03:08:14.262Z,7.80
2022-09-20T03:11:02.511Z,7.70
2022-09-20T03:14:06.219Z,7.70
2022-09-20T03:17:05.324Z,7.70
2022-09-20T03:19:44.109Z,7.70
2022-09-20T03:22:36.519Z,7.70
2022-09-20T03:25:03.232Z,7.70
2022-09-20T03:27:50.332Z,7.70
2022-09-20T03:30:41.499Z,7.70
2022-09-20T03:33:34.077Z,7.70
2022-09-20T03:36:25.936Z,7.70
2022-09-20T03:39:13.910Z,7.70
2022-09-20T03:41:56.790Z,7.70
2022-09-20T03:44:50.600Z,7.70
2022-09-20T03:47:43.374Z,7.70
2022-09-20T03:50:54.375Z,7.70
2022-09-20T03:53:48.591Z,7.70
2022-09-20T03:56:39.564Z,7.70
2022-09-20T03:59:36.953Z,7.70
2022-09-20T04:02:29.370Z,7.80
2022-09-20T04:05:02.540Z,7.80
2022-09-20T04:07:50.431Z,7.80
2022-09-20T04:10:25.706Z,7.80
2022-09-20T04:13:04.159Z,7.80
2022-09-20T04:15:56.888Z,7.80
2022-09-20T04:18:38.090Z,7.80
2022-09-20T04:21:23.683Z,7.80
2022-09-20T04:23:55.762Z,7.80
2022-09-20T04:26:31.878Z,7.70
2022-09-20T04:29:19.380Z,7.70
2022-09-20T04:31:55.511Z,7.70
2022-09-20T04:34:57.088Z,7.70
2022-09-20T04:37:34.415Z,7.70
2022-09-20T04:40:09.162Z,7.70
2022-09-20T04:42:35.883Z,7.70
2022-09-20T04:45:32.410Z,7.60
2022-09-20T04:48:29.600Z,7.70
2022-09-20T04:51:46.335Z,7.70
2022-09-20T04:54:47.440Z,7.70
2022-09-20T04:57:26.293Z,7.70
2022-09-20T04:59:59.114Z,7.70
2022-09-20T05:02:44.426Z,7.70
2022-09-20T05:05:50.764Z,7.80
2022-09-20T05:08:23.315Z,7.80
2022-09-20T05:11:17.369Z,7.90
2022-09-20T05:14:02.435Z,7.90
2022-09-20T05:17:03.107Z,7.90
2022-09-20T05:19:49.524Z,8.00
2022-09-20T05:22:41.867Z,8.10
2022-09-20T05:25:30.954Z,8.10
2022-09-20T05:28:09.076Z,8.20
2022-09-20T05:30:49.677Z,8.30
2022-09-20T05:33:40.105Z,8.30
2022-09-20T05:36:44.756Z,8.40
2022-09-20T05:39:48.547Z,8.40
2022-09-20T05:42:27.577Z,8.50
2022-09-20T05:45:18.234Z,8.60
2022-09-20T05:48:04.918Z,8.70
2022-09-20T05:50:47.025Z,8.90
2022-09-20T05:53:13.756Z,9.00
2022-09-20T05:55:43.609Z,9.10
2022-09-20T05:58:10.329Z,9.30
2022-09-20T06:00:52.952Z,9.30
2022-09-20T06:03:54.452Z,9.40
2022-09-20T06:06:54.874Z,9.50
2022-09-20T06:09:59.257Z,9.60
2022-09-20T06:12:52.411Z,9.70
2022-09-20T06:16:00.634Z,9.80
2022-09-20T06:18:51.838Z,9.90
2022-09-20T06:21:51.918Z,10.00
2022-09-20T06:24:37.210Z,10.10
2022-09-20T06:27:15.660Z,10.10
2022-09-20T06:29:48.361Z,10.20
2022-09-20T06:32:18.467Z,10.30
2022-09-20T06:34:46.707Z,10.50
2022-09-20T06:38:03.375Z,10.60
2022-09-20T06:40:57.728Z,10.70
2022-09-20T06:43:24.642Z,10.90
2022-09-20T06:45:51.510Z,11.00
2022-09-20T06:48:19.209Z,11.20
2022-09-20T06:50:46.094Z,11.30
2022-09-20T06:53:24.270Z,11.40
2022-09-20T06:55:51.429Z,11.50
2022-09-20T06:58:18.269Z,11.60
2022-09-20T07:00:45.475Z,11.70
2022-09-20T07:03:13.076Z,11.70
2022-09-20T07:05:40.396Z,11.80
2022-09-20T07:08:07.312Z,11.80
2022-09-20T07:10:34.141Z,11.80
2022-09-20T07:13:02.701Z,11.90
2022-09-20T07:15:32.426Z,11.90
2022-09-20T07:18:00.301Z,11.90
2022-09-20T07:20:27.826Z,11.90
2022-09-20T07:22:54.694Z,11.90
2022-09-20T07:25:22.017Z,11.90
2022-09-20T07:27:50.646Z,11.80
2022-09-20T07:30:19.277Z,11.80
2022-09-20T07:32:46.182Z,11.80
2022-09-20T07:35:13.621Z,11.90
2022-09-20T07:37:41.325Z,11.80
2022-09-20T07:40:10.794Z,11.80
2022-09-20T07:42:37.867Z,11.80
2022-09-20T07:45:05.298Z,11.80
2022-09-20T07:47:33.092Z,11.70
2022-09-20T07:50:00.048Z,11.70
2022-09-20T07:52:27.032Z,11.60
2022-09-20T07:54:54.348Z,11.60
2022-09-20T07:57:21.181Z,11.70
2022-09-20T07:59:47.950Z,11.80
2022-09-20T08:02:16.548Z,12.10
2022-09-20T08:04:43.898Z,12.50
2022-09-20T08:07:12.513Z,12.90
2022-09-20T08:09:39.359Z,13.20
2022-09-20T08:14:55.662Z,14.00
2022-09-20T08:17:22.503Z,14.30
2022-09-20T08:19:50.339Z,14.60
2022-09-20T08:22:17.702Z,14.90
2022-09-20T08:24:44.517Z,15.30
2022-09-20T08:27:11.813Z,15.50
2022-09-20T08:29:38.758Z,15.80
2022-09-20T08:32:05.731Z,16.20
2022-09-20T08:34:32.648Z,16.50
2022-09-20T08:36:59.498Z,16.70
2022-09-20T08:42:40.351Z,16.80
2022-09-20T08:45:22.691Z,16.80
2022-09-20T08:48:05.597Z,16.70
2022-09-20T08:50:34.579Z,16.80
2022-09-20T08:53:05.643Z,16.70
2022-09-20T08:55:36.803Z,16.60
2022-09-20T08:58:08.586Z,16.50
2022-09-20T09:00:37.751Z,16.40
2022-09-20T09:03:10.767Z,16.50
2022-09-20T09:05:43.800Z,16.50
2022-09-20T09:08:17.190Z,16.40
2022-09-20T09:10:59.077Z,16.40
2022-09-20T09:13:53.707Z,16.40
2022-09-20T09:16:28.716Z,16.40
2022-09-20T09:19:34.277Z,16.60
2022-09-20T09:22:04.522Z,16.80
2022-09-20T09:24:31.616Z,17.10
2022-09-20T09:27:19.512Z,17.50
2022-09-20T09:29:51.826Z,17.80
2022-09-20T09:32:33.010Z,18.00
2022-09-20T09:35:26.370Z,18.30
2022-09-20T09:38:03.606Z,18.70
2022-09-20T09:40:32.209Z,19.30
2022-09-20T09:43:01.896Z,19.90
2022-09-20T09:45:32.526Z,20.40
2022-09-20T09:48:17.161Z,21.60
2022-09-20T09:50:43.931Z,23.50
2022-09-20T09:53:15.175Z,25.80
2022-09-20T09:55:54.870Z,27.70
2022-09-20T09:58:40.439Z,29.20
2022-09-20T10:01:18.868Z,30.60
2022-09-20T10:03:56.318Z,31.40
2022-09-20T10:06:52.121Z,32.10
2022-09-20T10:09:58.316Z,32.80
2022-09-20T10:12:38.155Z,33.40
2022-09-20T10:15:25.243Z,33.60
2022-09-20T10:17:52.786Z,32.60
2022-09-20T10:21:01.999Z,31.50
2022-09-20T10:24:01.476Z,29.80
2022-09-20T10:26:36.215Z,27.60
2022-09-20T10:29:16.351Z,25.70
2022-09-20T10:32:07.500Z,24.30
2022-09-20T10:34:49.488Z,23.60
2022-09-20T10:37:25.163Z,23.20
2022-09-20T10:40:08.225Z,22.80
2022-09-20T10:43:07.520Z,22.70
2022-09-20T10:46:14.387Z,23.00
2022-09-20T10:48:48.604Z,23.10
2022-09-20T10:51:36.475Z,22.40
2022-09-20T10:54:15.404Z,21.70
2022-09-20T10:56:49.312Z,20.80
2022-09-20T10:59:19.288Z,19.90
2022-09-20T11:02:01.418Z,19.00
2022-09-20T11:04:35.327Z,18.10
2022-09-20T11:07:27.348Z,17.40
2022-09-20T11:10:39.121Z,16.70
2022-09-20T11:13:20.287Z,16.10
2022-09-20T11:15:59.949Z,15.60
2022-09-20T11:18:31.696Z,15.30
2022-09-20T11:21:16.528Z,15.00
2022-09-20T11:24:02.124Z,14.90
2022-09-20T11:26:40.237Z,14.80
2022-09-20T11:29:39.709Z,14.90
2022-09-20T11:32:24.250Z,15.00
2022-09-20T11:35:14.691Z,15.30
2022-09-20T11:37:47.911Z,15.60
2022-09-20T11:40:25.177Z,16.60
2022-09-20T11:42:52.877Z,17.80
2022-09-20T11:45:24.065Z,19.50
2022-09-20T11:48:23.408Z,21.70
2022-09-20T11:50:58.960Z,24.10
2022-09-20T11:53:41.033Z,26.30
2022-09-20T11:56:12.955Z,27.70
2022-09-20T11:58:51.942Z,27.60
2022-09-20T12:01:32.550Z,26.80
2022-09-20T12:07:08.899Z,26.50
2022-09-20T12:09:44.170Z,27.70
2022-09-20T12:12:15.188Z,28.90
2022-09-20T12:14:42.363Z,29.50
2022-09-20T12:17:44.408Z,29.20
2022-09-20T12:20:34.336Z,28.20
2022-09-20T12:23:38.387Z,26.70
2022-09-20T12:26:22.150Z,25.20
2022-09-20T12:28:58.709Z,23.90
2022-09-20T12:31:26.399Z,22.70
2022-09-20T12:34:11.933Z,22.00
2022-09-20T12:36:43.250Z,21.40
2022-09-20T12:39:16.246Z,21.10
2022-09-20T12:41:59.058Z,21.10
2022-09-20T12:44:50.100Z,21.20
2022-09-20T12:47:22.760Z,21.40
2022-09-20T12:50:09.475Z,22.60
2022-09-20T12:52:56.107Z,23.70
2022-09-20T12:55:43.791Z,25.00
2022-09-20T12:58:14.343Z,25.40
2022-09-20T13:00:46.615Z,25.10
2022-09-20T13:03:28.803Z,24.60
2022-09-20T13:06:08.899Z,23.90
2022-09-20T13:08:42.818Z,22.90
2022-09-20T13:11:19.094Z,22.00
2022-09-20T13:14:04.228Z,21.20
2022-09-20T13:16:36.284Z,20.40
2022-09-20T13:19:29.743Z,19.70
2022-09-20T13:22:03.793Z,19.10
2022-09-20T13:24:36.961Z,18.60
2022-09-20T13:27:13.199Z,18.20
2022-09-20T13:29:42.362Z,17.80
2022-09-20T13:32:29.611Z,17.70
2022-09-20T13:35:15.470Z,17.60
2022-09-20T13:37:45.229Z,17.60
2022-09-20T13:40:21.534Z,17.60
2022-09-20T13:42:50.400Z,17.70
2022-09-20T13:45:19.164Z,18.00
2022-09-20T13:47:53.127Z,18.40
2022-09-20T13:50:27.446Z,18.50
2022-09-20T13:52:57.595Z,18.70
2022-09-20T13:55:40.865Z,19.20
2022-09-20T13:58:29.490Z,19.70
2022-09-20T14:01:02.213Z,20.00
2022-09-20T14:03:30.609Z,20.20
2022-09-20T14:06:14.056Z,20.20
2022-09-20T14:08:48.445Z,20.10
2022-09-20T14:11:16.652Z,20.00
2022-09-20T14:13:47.609Z,19.80
2022-09-20T14:16:16.224Z,19.60
2022-09-20T14:18:44.442Z,19.40
2022-09-20T14:21:12.022Z,19.10
2022-09-20T14:24:23.928Z,18.70
2022-09-20T14:27:02.396Z,18.30
2022-09-20T14:29:40.098Z,17.90
2022-09-20T14:32:19.722Z,17.60
2022-09-20T14:35:05.165Z,17.20
2022-09-20T14:37:33.818Z,16.90
2022-09-20T14:40:16.702Z,16.70
2022-09-20T14:42:46.531Z,16.60
2022-09-20T14:45:26.942Z,16.50
2022-09-20T14:48:05.666Z,16.40
2022-09-20T14:50:44.059Z,16.40
2022-09-20T14:53:13.549Z,16.40
2022-09-20T14:56:01.884Z,16.30
2022-09-20T14:58:28.857Z,16.30
2022-09-20T15:01:19.246Z,16.20
2022-09-20T15:03:46.195Z,16.20
2022-09-20T15:06:14.688Z,16.30
2022-09-20T15:08:46.373Z,16.30
2022-09-20T15:11:18.281Z,16.30
2022-09-20T15:13:45.587Z,16.30
2022-09-20T15:16:14.644Z,16.30
2022-09-20T15:18:43.342Z,16.20
2022-09-20T15:21:11.435Z,16.10
2022-09-20T15:23:39.448Z,16.10
2022-09-20T15:26:07.750Z,16.00
2022-09-20T15:28:34.996Z,15.90
2022-09-20T15:31:01.891Z,15.80
2022-09-20T15:33:30.926Z,15.70
2022-09-20T15:35:58.364Z,15.70
2022-09-20T15:38:27.041Z,15.50
2022-09-20T15:40:54.438Z,15.40
2022-09-20T15:43:27.975Z,15.30
2022-09-20T15:46:00.350Z,15.20
2022-09-20T15:48:29.874Z,15.10
2022-09-20T15:51:02.756Z,15.00
2022-09-20T15:53:46.073Z,14.90
2022-09-20T15:56:22.289Z,14.80
2022-09-20T15:58:51.416Z,14.70
2022-09-20T16:01:19.583Z,14.70
2022-09-20T16:03:47.034Z,14.60
2022-09-20T16:06:14.025Z,14.50
2022-09-20T16:08:42.744Z,14.40
2022-09-20T16:11:12.480Z,14.30
2022-09-20T16:13:39.593Z,14.20
2022-09-20T16:16:09.229Z,14.10
2022-09-20T16:18:55.936Z,14.00
2022-09-20T16:21:23.049Z,13.90
2022-09-20T16:23:52.288Z,13.80
2022-09-20T16:26:26.871Z,13.80
2022-09-20T16:28:55.673Z,13.70
2022-09-20T16:31:28.550Z,13.70
2022-09-20T16:33:55.437Z,13.70
2022-09-20T16:36:27.257Z,13.70
2022-09-20T16:39:01.356Z,13.70
2022-09-20T16:41:28.930Z,13.80
2022-09-20T16:43:56.180Z,13.90
2022-09-20T16:46:27.502Z,13.90
2022-09-20T16:48:58.439Z,13.90
2022-09-20T16:51:29.770Z,14.00
2022-09-20T16:54:04.203Z,13.90
2022-09-20T16:56:38.355Z,13.90
2022-09-20T16:59:07.401Z,13.90
2022-09-20T17:01:36.804Z,13.80
2022-09-20T17:04:08.337Z,13.70
2022-09-20T17:06:37.780Z,13.60
2022-09-20T17:09:06.411Z,13.60
2022-09-20T17:11:35.924Z,13.50
2022-09-20T17:14:03.416Z,13.40
2022-09-20T17:16:35.465Z,13.30
2022-09-20T17:19:08.792Z,13.20
2022-09-20T17:21:38.329Z,13.00
2022-09-20T17:24:07.141Z,12.90
2022-09-20T17:26:40.330Z,12.80
2022-09-20T17:29:09.887Z,12.70
2022-09-20T17:31:39.137Z,12.60
2022-09-20T17:34:08.495Z,12.50
2022-09-20T17:36:44.114Z,12.50
2022-09-20T17:39:12.934Z,12.30
2022-09-20T17:41:41.433Z,12.30
2022-09-20T17:44:09.958Z,12.20
2022-09-20T17:46:38.895Z,12.10
2022-09-20T17:49:09.202Z,12.00
2022-09-20T17:51:40.043Z,11.90
2022-09-20T17:54:08.695Z,11.80
2022-09-20T17:56:35.741Z,11.80
2022-09-20T17:59:04.549Z,11.70
2022-09-20T18:01:33.644Z,11.60
2022-09-20T18:04:02.121Z,11.50
2022-09-20T18:06:35.559Z,11.50
2022-09-20T18:09:10.844Z,11.40
2022-09-20T18:11:48.671Z,11.30
2022-09-20T18:14:21.225Z,11.30
2022-09-20T18:16:50.968Z,11.20
2022-09-20T18:19:17.847Z,11.10
2022-09-20T18:21:45.099Z,11.10
2022-09-20T18:24:12.189Z,11.00
2022-09-20T18:26:39.926Z,10.90
2022-09-20T18:29:12.278Z,10.90
2022-09-20T18:31:46.722Z,10.90
2022-09-20T18:34:18.582Z,10.80
2022-09-20T18:36:49.900Z,10.80
2022-09-20T18:39:16.695Z,10.80
2022-09-20T18:41:44.774Z,10.70
2022-09-20T18:44:14.851Z,10.70
2022-09-20T18:46:41.841Z,10.70
2022-09-20T18:49:10.621Z,10.70
2022-09-20T18:51:39.902Z,10.70
2022-09-20T18:54:09.879Z,10.80
2022-09-20T18:56:38.961Z,10.80
2022-09-20T18:59:13.141Z,10.80
2022-09-20T19:01:58.009Z,10.80
2022-09-20T19:04:51.854Z,10.70
2022-09-20T19:07:27.655Z,10.70
2022-09-20T19:10:06.670Z,10.70
2022-09-20T19:12:42.743Z,10.70
2022-09-20T19:15:22.613Z,10.70
2022-09-20T19:17:54.061Z,10.70
2022-09-20T19:20:39.246Z,10.60
2022-09-20T19:23:28.080Z,10.60
2022-09-20T19:26:21.755Z,10.60
2022-09-20T19:28:50.374Z,10.50
2022-09-20T19:31:26.270Z,10.50
2022-09-20T19:33:55.025Z,10.50
2022-09-20T19:36:36.325Z,10.50
2022-09-20T19:39:27.236Z,10.50
2022-09-20T19:42:09.129Z,10.50
2022-09-20T19:44:55.293Z,10.50
2022-09-20T19:48:04.998Z,10.40
2022-09-20T19:50:41.210Z,10.40
2022-09-20T19:53:09.760Z,10.40
2022-09-20T19:55:37.241Z,10.40
2022-09-20T19:58:04.684Z,10.40
2022-09-20T20:00:32.148Z,10.40
2022-09-20T20:02:59.362Z,10.40
2022-09-20T20:05:27.672Z,10.30
2022-09-20T20:08:12.992Z,10.30
2022-09-20T20:10:54.748Z,10.30
2022-09-20T20:14:03.037Z,10.30
2022-09-20T20:16:58.107Z,10.20
2022-09-20T20:19:46.409Z,10.20
2022-09-20T20:22:58.769Z,10.20
2022-09-20T20:25:55.129Z,10.10
2022-09-20T20:28:22.251Z,10.00
2022-09-20T20:30:49.088Z,9.90
2022-09-20T20:33:16.400Z,9.90
2022-09-20T20:35:43.226Z,9.90
2022-09-20T20:38:11.779Z,9.80
2022-09-20T20:40:39.189Z,9.70
2022-09-20T20:43:06.326Z,9.70
2022-09-20T20:45:33.395Z,9.60
2022-09-20T20:48:00.270Z,9.60
2022-09-20T20:50:28.182Z,9.60
2022-09-20T20:52:56.255Z,9.50
2022-09-20T20:55:24.733Z,9.50
2022-09-20T20:57:58.166Z,9.40
2022-09-20T21:00:26.173Z,9.40
2022-09-20T21:03:00.280Z,9.30
2022-09-20T21:05:28.623Z,9.30
2022-09-20T21:07:56.363Z,9.30
2022-09-20T21:10:23.720Z,9.20
2022-09-20T21:12:54.140Z,9.20
2022-09-20T21:15:21.433Z,9.20
2022-09-20T21:17:52.727Z,9.10
2022-09-20T21:20:21.427Z,9.10
2022-09-20T21:22:48.272Z,9.00
2022-09-20T21:25:15.105Z,9.00
2022-09-20T21:27:42.118Z,9.00
2022-09-20T21:30:09.376Z,9.00
2022-09-20T21:32:36.583Z,8.90
2022-09-20T21:35:03.504Z,8.90
2022-09-20T21:37:30.517Z,8.80
2022-09-20T21:39:57.621Z,8.80
2022-09-20T21:42:27.186Z,8.80
2022-09-20T21:44:54.092Z,8.80
2022-09-20T21:47:20.979Z,8.70
2022-09-20T21:49:47.750Z,8.70
2022-09-20T21:52:14.660Z,8.60
2022-09-20T21:54:45.702Z,8.60
2022-09-20T21:57:13.714Z,8.60
2022-09-20T21:59:40.878Z,8.50
2022-09-20T22:02:07.785Z,8.50
2022-09-20T22:04:34.813Z,8.50
2022-09-20T22:07:03.960Z,8.50
2022-09-20T22:09:31.140Z,8.40
2022-09-20T22:11:57.912Z,8.40
2022-09-20T22:14:24.779Z,8.40
2022-09-20T22:16:51.586Z,8.40
2022-09-20T22:19:19.276Z,8.30
2022-09-20T22:21:48.301Z,8.30
2022-09-20T22:24:16.490Z,8.30
2022-09-20T22:26:49.512Z,8.20
2022-09-20T22:29:17.652Z,8.20
2022-09-20T22:31:46.166Z,8.20
2022-09-20T22:34:21.600Z,8.10
2022-09-20T22:36:49.100Z,8.10
2022-09-20T22:39:17.119Z,8.10
2022-09-20T22:41:44.979Z,8.10
2022-09-20T22:44:12.103Z,8.00
2022-09-20T22:46:40.096Z,8.00
2022-09-20T22:49:08.557Z,8.00
2022-09-20T22:51:36.493Z,8.00
2022-09-20T22:54:09.029Z,8.00
2022-09-20T22:56:37.069Z,8.00
2022-09-20T22:59:09.918Z,8.00
2022-09-20T23:01:45.377Z,7.90
2022-09-20T23:04:15.070Z,7.90
2022-09-20T23:06:55.035Z,7.90
2022-09-20T23:09:27.456Z,7.90
2022-09-20T23:11:54.450Z,7.80
2022-09-20T23:14:22.842Z,7.80
2022-09-20T23:16:50.012Z,7.80
2022-09-20T23:19:17.811Z,7.80
2022-09-20T23:21:45.334Z,7.70
2022-09-20T23:24:14.148Z,7.70
2022-09-20T23:26:42.172Z,7.70
2022-09-20T23:29:14.430Z,7.70
2022-09-20T23:31:47.195Z,7.70
2022-09-20T23:34:15.778Z,7.70
2022-09-20T23:36:43.623Z,7.60
2022-09-20T23:39:12.489Z,7.60
2022-09-20T23:41:41.405Z,7.60
2022-09-20T23:44:10.234Z,7.60
2022-09-20T23:46:38.576Z,7.60
2022-09-20T23:49:06.749Z,7.60
2022-09-20T23:51:35.411Z,7.50
2022-09-20T23:54:02.842Z,7.60
2022-09-20T23:56:30.189Z,7.60
2022-09-20T23:58:57.343Z,7.60
